sensor_id;sensor_type;location;lat;lon;timestamp;P1;durP1;ratioP1;P2;durP2;ratioP2
50647;SDS011;36617;52.002;6.034;2022-12-13T00:02:24;34.40;;;25.43;;
50647;SDS011;36617;52.002;6.034;2022-12-13T00:04:49;30.87;;;23.83;;
50647;SDS011;36617;52.002;6.034;2022-12-13T00:07:14;32.03;;;23.47;;
50647;SDS011;36617;52.002;6.034;2022-12-13T00:09:40;31.97;;;23.63;;
50647;SDS011;36617;52.002;6.034;2022-12-13T00:12:07;31.30;;;23.17;;
50647;SDS011;36617;52.002;6.034;2022-12-13T00:14:32;28.97;;;22.00;;
50647;SDS011;36617;52.002;6.034;2022-12-13T00:16:57;27.73;;;21.27;;
50647;SDS011;36617;52.002;6.034;2022-12-13T00:19:22;28.47;;;21.07;;
50647;SDS011;36617;52.002;6.034;2022-12-13T00:21:48;27.55;;;21.02;;
50647;SDS011;36617;52.002;6.034;2022-12-13T00:24:14;27.60;;;20.47;;
50647;SDS011;36617;52.002;6.034;2022-12-13T00:26:39;26.67;;;20.53;;
50647;SDS011;36617;52.002;6.034;2022-12-13T00:29:05;25.67;;;19.43;;
50647;SDS011;36617;52.002;6.034;2022-12-13T00:31:30;25.75;;;19.15;;
50647;SDS011;36617;52.002;6.034;2022-12-13T00:33:56;25.57;;;19.40;;
50647;SDS011;36617;52.002;6.034;2022-12-13T00:36:21;27.25;;;19.55;;
50647;SDS011;36617;52.002;6.034;2022-12-13T00:38:47;25.00;;;19.20;;
50647;SDS011;36617;52.002;6.034;2022-12-13T00:41:24;24.15;;;18.27;;
50647;SDS011;36617;52.002;6.034;2022-12-13T00:43:49;23.77;;;17.60;;
50647;SDS011;36617;52.002;6.034;2022-12-13T00:46:15;23.77;;;17.43;;
50647;SDS011;36617;52.002;6.034;2022-12-13T00:48:42;22.60;;;17.05;;
50647;SDS011;36617;52.002;6.034;2022-12-13T00:51:08;22.48;;;16.85;;
50647;SDS011;36617;52.002;6.034;2022-12-13T00:53:34;21.03;;;16.00;;
50647;SDS011;36617;52.002;6.034;2022-12-13T00:56:00;21.73;;;16.08;;
50647;SDS011;36617;52.002;6.034;2022-12-13T00:58:25;22.43;;;16.03;;
50647;SDS011;36617;52.002;6.034;2022-12-13T01:00:50;20.07;;;15.03;;
50647;SDS011;36617;52.002;6.034;2022-12-13T01:03:15;19.97;;;14.73;;
50647;SDS011;36617;52.002;6.034;2022-12-13T01:05:49;18.95;;;14.38;;
50647;SDS011;36617;52.002;6.034;2022-12-13T01:08:15;18.33;;;13.53;;
50647;SDS011;36617;52.002;6.034;2022-12-13T01:10:43;19.10;;;14.33;;
50647;SDS011;36617;52.002;6.034;2022-12-13T01:13:09;17.95;;;13.38;;
50647;SDS011;36617;52.002;6.034;2022-12-13T01:15:34;17.50;;;13.00;;
50647;SDS011;36617;52.002;6.034;2022-12-13T01:17:59;17.63;;;12.63;;
50647;SDS011;36617;52.002;6.034;2022-12-13T01:20:24;17.10;;;12.70;;
50647;SDS011;36617;52.002;6.034;2022-12-13T01:22:50;17.10;;;12.73;;
50647;SDS011;36617;52.002;6.034;2022-12-13T01:25:15;16.33;;;12.10;;
50647;SDS011;36617;52.002;6.034;2022-12-13T01:27:40;17.23;;;12.20;;
50647;SDS011;36617;52.002;6.034;2022-12-13T01:30:05;17.43;;;12.60;;
50647;SDS011;36617;52.002;6.034;2022-12-13T01:32:31;16.23;;;11.73;;
50647;SDS011;36617;52.002;6.034;2022-12-13T01:34:56;14.47;;;10.87;;
50647;SDS011;36617;52.002;6.034;2022-12-13T01:37:21;15.13;;;11.37;;
50647;SDS011;36617;52.002;6.034;2022-12-13T01:39:46;15.50;;;11.30;;
50647;SDS011;36617;52.002;6.034;2022-12-13T01:42:12;16.53;;;11.60;;
50647;SDS011;36617;52.002;6.034;2022-12-13T01:47:22;14.80;;;10.73;;
50647;SDS011;36617;52.002;6.034;2022-12-13T01:49:48;14.32;;;10.27;;
50647;SDS011;36617;52.002;6.034;2022-12-13T01:52:14;13.07;;;9.97;;
50647;SDS011;36617;52.002;6.034;2022-12-13T01:54:41;13.57;;;9.98;;
50647;SDS011;36617;52.002;6.034;2022-12-13T01:57:08;14.02;;;10.07;;
50647;SDS011;36617;52.002;6.034;2022-12-13T01:59:34;13.23;;;10.00;;
50647;SDS011;36617;52.002;6.034;2022-12-13T02:02:01;13.43;;;9.52;;
50647;SDS011;36617;52.002;6.034;2022-12-13T02:04:30;13.07;;;9.48;;
50647;SDS011;36617;52.002;6.034;2022-12-13T02:06:57;13.03;;;9.50;;
50647;SDS011;36617;52.002;6.034;2022-12-13T02:09:23;12.27;;;8.97;;
50647;SDS011;36617;52.002;6.034;2022-12-13T02:11:49;12.70;;;8.88;;
50647;SDS011;36617;52.002;6.034;2022-12-13T02:14:15;12.07;;;9.15;;
50647;SDS011;36617;52.002;6.034;2022-12-13T02:32:10;12.30;;;8.57;;
50647;SDS011;36617;52.002;6.034;2022-12-13T02:37:23;11.43;;;8.23;;
50647;SDS011;36617;52.002;6.034;2022-12-13T02:39:55;11.13;;;7.77;;
50647;SDS011;36617;52.002;6.034;2022-12-13T02:42:25;12.03;;;8.40;;
50647;SDS011;36617;52.002;6.034;2022-12-13T02:45:05;11.13;;;7.80;;
50647;SDS011;36617;52.002;6.034;2022-12-13T02:47:32;11.60;;;7.53;;
50647;SDS011;36617;52.002;6.034;2022-12-13T02:49:58;10.53;;;7.43;;
50647;SDS011;36617;52.002;6.034;2022-12-13T02:52:26;10.73;;;7.40;;
50647;SDS011;36617;52.002;6.034;2022-12-13T02:54:52;10.77;;;7.47;;
50647;SDS011;36617;52.002;6.034;2022-12-13T02:57:30;9.80;;;7.10;;
50647;SDS011;36617;52.002;6.034;2022-12-13T03:00:01;10.77;;;7.10;;
50647;SDS011;36617;52.002;6.034;2022-12-13T03:07:47;10.40;;;7.20;;
50647;SDS011;36617;52.002;6.034;2022-12-13T03:10:15;9.18;;;6.55;;
50647;SDS011;36617;52.002;6.034;2022-12-13T03:12:45;9.57;;;6.80;;
50647;SDS011;36617;52.002;6.034;2022-12-13T03:15:42;10.55;;;7.10;;
50647;SDS011;36617;52.002;6.034;2022-12-13T03:18:11;10.02;;;6.70;;
50647;SDS011;36617;52.002;6.034;2022-12-13T03:20:47;9.20;;;6.35;;
50647;SDS011;36617;52.002;6.034;2022-12-13T03:23:13;9.23;;;6.15;;
50647;SDS011;36617;52.002;6.034;2022-12-13T03:25:38;9.32;;;6.72;;
50647;SDS011;36617;52.002;6.034;2022-12-13T03:28:03;9.43;;;6.43;;
50647;SDS011;36617;52.002;6.034;2022-12-13T03:30:30;9.30;;;6.10;;
50647;SDS011;36617;52.002;6.034;2022-12-13T03:32:55;8.90;;;6.20;;
50647;SDS011;36617;52.002;6.034;2022-12-13T03:35:20;8.83;;;6.07;;
50647;SDS011;36617;52.002;6.034;2022-12-13T03:37:46;8.73;;;5.90;;
50647;SDS011;36617;52.002;6.034;2022-12-13T03:40:12;8.98;;;6.18;;
50647;SDS011;36617;52.002;6.034;2022-12-13T03:42:37;8.73;;;5.93;;
50647;SDS011;36617;52.002;6.034;2022-12-13T03:45:02;9.23;;;6.00;;
50647;SDS011;36617;52.002;6.034;2022-12-13T03:47:27;9.10;;;6.03;;
50647;SDS011;36617;52.002;6.034;2022-12-13T03:49:53;8.23;;;5.77;;
50647;SDS011;36617;52.002;6.034;2022-12-13T03:52:19;10.60;;;5.80;;
50647;SDS011;36617;52.002;6.034;2022-12-13T03:54:45;8.73;;;5.80;;
50647;SDS011;36617;52.002;6.034;2022-12-13T03:57:10;8.63;;;5.77;;
50647;SDS011;36617;52.002;6.034;2022-12-13T03:59:35;8.10;;;5.63;;
50647;SDS011;36617;52.002;6.034;2022-12-13T04:02:00;8.03;;;5.40;;
50647;SDS011;36617;52.002;6.034;2022-12-13T04:04:25;7.83;;;5.53;;
50647;SDS011;36617;52.002;6.034;2022-12-13T04:06:50;8.53;;;5.57;;
50647;SDS011;36617;52.002;6.034;2022-12-13T04:09:16;8.10;;;5.30;;
50647;SDS011;36617;52.002;6.034;2022-12-13T04:11:41;7.87;;;5.30;;
50647;SDS011;36617;52.002;6.034;2022-12-13T04:14:25;7.63;;;5.15;;
50647;SDS011;36617;52.002;6.034;2022-12-13T04:16:50;7.80;;;5.20;;
50647;SDS011;36617;52.002;6.034;2022-12-13T04:19:16;8.73;;;5.70;;
50647;SDS011;36617;52.002;6.034;2022-12-13T04:21:41;7.93;;;5.27;;
50647;SDS011;36617;52.002;6.034;2022-12-13T04:24:06;8.10;;;5.30;;
50647;SDS011;36617;52.002;6.034;2022-12-13T04:26:31;7.90;;;5.27;;
50647;SDS011;36617;52.002;6.034;2022-12-13T04:28:57;7.27;;;5.10;;
50647;SDS011;36617;52.002;6.034;2022-12-13T04:31:22;7.80;;;5.00;;
50647;SDS011;36617;52.002;6.034;2022-12-13T04:33:47;8.33;;;5.40;;
50647;SDS011;36617;52.002;6.034;2022-12-13T04:36:12;8.10;;;5.43;;
50647;SDS011;36617;52.002;6.034;2022-12-13T04:38:43;7.65;;;5.03;;
50647;SDS011;36617;52.002;6.034;2022-12-13T04:41:12;7.67;;;4.97;;
50647;SDS011;36617;52.002;6.034;2022-12-13T04:43:38;8.20;;;5.10;;
50647;SDS011;36617;52.002;6.034;2022-12-13T04:46:03;8.25;;;5.40;;
50647;SDS011;36617;52.002;6.034;2022-12-13T04:48:28;7.23;;;5.00;;
50647;SDS011;36617;52.002;6.034;2022-12-13T04:50:54;8.00;;;5.30;;
50647;SDS011;36617;52.002;6.034;2022-12-13T04:53:19;7.43;;;4.80;;
50647;SDS011;36617;52.002;6.034;2022-12-13T04:55:44;7.60;;;5.17;;
50647;SDS011;36617;52.002;6.034;2022-12-13T04:58:09;7.97;;;5.10;;
50647;SDS011;36617;52.002;6.034;2022-12-13T05:00:34;7.30;;;4.85;;
50647;SDS011;36617;52.002;6.034;2022-12-13T05:02:59;7.43;;;5.00;;
50647;SDS011;36617;52.002;6.034;2022-12-13T05:05:25;7.03;;;4.80;;
50647;SDS011;36617;52.002;6.034;2022-12-13T05:07:50;7.27;;;4.83;;
50647;SDS011;36617;52.002;6.034;2022-12-13T05:10:15;7.60;;;4.97;;
50647;SDS011;36617;52.002;6.034;2022-12-13T05:12:40;7.20;;;4.73;;
50647;SDS011;36617;52.002;6.034;2022-12-13T05:15:06;7.30;;;4.97;;
50647;SDS011;36617;52.002;6.034;2022-12-13T05:17:32;7.68;;;4.82;;
50647;SDS011;36617;52.002;6.034;2022-12-13T05:19:57;7.90;;;5.10;;
50647;SDS011;36617;52.002;6.034;2022-12-13T05:22:22;7.53;;;4.90;;
50647;SDS011;36617;52.002;6.034;2022-12-13T05:24:47;7.93;;;4.90;;
50647;SDS011;36617;52.002;6.034;2022-12-13T05:27:12;7.70;;;5.10;;
50647;SDS011;36617;52.002;6.034;2022-12-13T05:29:38;7.33;;;5.00;;
50647;SDS011;36617;52.002;6.034;2022-12-13T05:32:03;7.45;;;5.00;;
50647;SDS011;36617;52.002;6.034;2022-12-13T05:34:28;7.13;;;5.03;;
50647;SDS011;36617;52.002;6.034;2022-12-13T05:36:53;7.70;;;5.17;;
50647;SDS011;36617;52.002;6.034;2022-12-13T05:39:19;7.00;;;4.80;;
50647;SDS011;36617;52.002;6.034;2022-12-13T05:41:44;6.77;;;4.70;;
50647;SDS011;36617;52.002;6.034;2022-12-13T05:44:09;7.07;;;4.70;;
50647;SDS011;36617;52.002;6.034;2022-12-13T05:46:37;7.07;;;4.70;;
50647;SDS011;36617;52.002;6.034;2022-12-13T05:49:02;7.57;;;5.10;;
50647;SDS011;36617;52.002;6.034;2022-12-13T05:51:27;6.90;;;4.70;;
50647;SDS011;36617;52.002;6.034;2022-12-13T05:53:52;7.35;;;4.60;;
50647;SDS011;36617;52.002;6.034;2022-12-13T05:56:18;7.57;;;5.13;;
50647;SDS011;36617;52.002;6.034;2022-12-13T05:58:43;7.07;;;4.73;;
50647;SDS011;36617;52.002;6.034;2022-12-13T06:01:12;7.93;;;4.90;;
50647;SDS011;36617;52.002;6.034;2022-12-13T06:03:37;7.25;;;4.90;;
50647;SDS011;36617;52.002;6.034;2022-12-13T06:06:03;7.63;;;4.73;;
50647;SDS011;36617;52.002;6.034;2022-12-13T06:08:29;7.65;;;4.93;;
50647;SDS011;36617;52.002;6.034;2022-12-13T06:10:55;6.95;;;4.72;;
50647;SDS011;36617;52.002;6.034;2022-12-13T06:13:21;6.97;;;4.47;;
50647;SDS011;36617;52.002;6.034;2022-12-13T06:15:46;7.47;;;4.73;;
50647;SDS011;36617;52.002;6.034;2022-12-13T06:18:11;7.50;;;5.00;;
50647;SDS011;36617;52.002;6.034;2022-12-13T06:20:37;7.20;;;5.10;;
50647;SDS011;36617;52.002;6.034;2022-12-13T06:23:02;8.20;;;5.10;;
50647;SDS011;36617;52.002;6.034;2022-12-13T06:25:27;7.27;;;4.93;;
50647;SDS011;36617;52.002;6.034;2022-12-13T06:27:53;8.03;;;5.30;;
50647;SDS011;36617;52.002;6.034;2022-12-13T06:30:18;7.43;;;5.13;;
50647;SDS011;36617;52.002;6.034;2022-12-13T06:32:46;7.87;;;5.33;;
50647;SDS011;36617;52.002;6.034;2022-12-13T06:35:11;7.30;;;5.10;;
50647;SDS011;36617;52.002;6.034;2022-12-13T06:37:37;8.17;;;5.40;;
50647;SDS011;36617;52.002;6.034;2022-12-13T06:40:02;7.83;;;5.43;;
50647;SDS011;36617;52.002;6.034;2022-12-13T06:42:27;8.17;;;5.17;;
50647;SDS011;36617;52.002;6.034;2022-12-13T06:44:53;7.93;;;5.20;;
50647;SDS011;36617;52.002;6.034;2022-12-13T06:47:18;8.43;;;5.70;;
50647;SDS011;36617;52.002;6.034;2022-12-13T06:49:43;7.67;;;5.00;;
50647;SDS011;36617;52.002;6.034;2022-12-13T06:52:09;7.80;;;5.33;;
50647;SDS011;36617;52.002;6.034;2022-12-13T06:54:36;8.32;;;5.68;;
50647;SDS011;36617;52.002;6.034;2022-12-13T06:57:01;8.17;;;5.87;;
50647;SDS011;36617;52.002;6.034;2022-12-13T06:59:26;8.07;;;5.57;;
50647;SDS011;36617;52.002;6.034;2022-12-13T07:01:52;8.63;;;6.30;;
50647;SDS011;36617;52.002;6.034;2022-12-13T07:04:17;8.23;;;5.73;;
50647;SDS011;36617;52.002;6.034;2022-12-13T07:06:42;7.87;;;5.83;;
50647;SDS011;36617;52.002;6.034;2022-12-13T07:09:07;8.07;;;5.47;;
50647;SDS011;36617;52.002;6.034;2022-12-13T07:11:32;7.87;;;5.77;;
50647;SDS011;36617;52.002;6.034;2022-12-13T07:13:58;7.83;;;5.60;;
50647;SDS011;36617;52.002;6.034;2022-12-13T07:16:23;8.27;;;5.80;;
50647;SDS011;36617;52.002;6.034;2022-12-13T07:18:55;8.10;;;5.63;;
50647;SDS011;36617;52.002;6.034;2022-12-13T07:21:21;7.87;;;5.50;;
50647;SDS011;36617;52.002;6.034;2022-12-13T07:23:46;8.93;;;5.60;;
50647;SDS011;36617;52.002;6.034;2022-12-13T07:26:11;7.70;;;5.30;;
50647;SDS011;36617;52.002;6.034;2022-12-13T07:28:36;7.57;;;5.40;;
50647;SDS011;36617;52.002;6.034;2022-12-13T07:31:03;7.63;;;5.43;;
50647;SDS011;36617;52.002;6.034;2022-12-13T07:33:28;8.50;;;5.63;;
50647;SDS011;36617;52.002;6.034;2022-12-13T07:36:03;8.37;;;5.90;;
50647;SDS011;36617;52.002;6.034;2022-12-13T07:38:30;8.60;;;5.60;;
50647;SDS011;36617;52.002;6.034;2022-12-13T07:40:56;7.40;;;5.63;;
50647;SDS011;36617;52.002;6.034;2022-12-13T07:43:21;8.10;;;5.80;;
50647;SDS011;36617;52.002;6.034;2022-12-13T07:45:47;7.57;;;5.60;;
50647;SDS011;36617;52.002;6.034;2022-12-13T07:48:12;8.17;;;5.57;;
50647;SDS011;36617;52.002;6.034;2022-12-13T07:50:37;8.40;;;5.50;;
50647;SDS011;36617;52.002;6.034;2022-12-13T07:53:03;7.63;;;5.40;;
50647;SDS011;36617;52.002;6.034;2022-12-13T07:55:29;8.27;;;5.45;;
50647;SDS011;36617;52.002;6.034;2022-12-13T07:58:00;7.88;;;5.40;;
50647;SDS011;36617;52.002;6.034;2022-12-13T08:00:26;7.93;;;5.43;;
50647;SDS011;36617;52.002;6.034;2022-12-13T08:02:51;7.87;;;5.53;;
50647;SDS011;36617;52.002;6.034;2022-12-13T08:05:16;7.27;;;5.13;;
50647;SDS011;36617;52.002;6.034;2022-12-13T08:07:42;7.78;;;5.20;;
50647;SDS011;36617;52.002;6.034;2022-12-13T08:10:07;7.97;;;5.53;;
50647;SDS011;36617;52.002;6.034;2022-12-13T08:12:32;8.83;;;5.50;;
50647;SDS011;36617;52.002;6.034;2022-12-13T08:14:57;8.37;;;5.57;;
50647;SDS011;36617;52.002;6.034;2022-12-13T08:17:23;7.97;;;5.80;;
50647;SDS011;36617;52.002;6.034;2022-12-13T08:19:48;8.70;;;5.70;;
50647;SDS011;36617;52.002;6.034;2022-12-13T08:22:13;7.57;;;5.50;;
50647;SDS011;36617;52.002;6.034;2022-12-13T08:24:38;8.67;;;5.90;;
50647;SDS011;36617;52.002;6.034;2022-12-13T08:27:04;7.90;;;5.57;;
50647;SDS011;36617;52.002;6.034;2022-12-13T08:29:30;7.20;;;5.30;;
50647;SDS011;36617;52.002;6.034;2022-12-13T08:31:55;8.43;;;5.80;;
50647;SDS011;36617;52.002;6.034;2022-12-13T08:34:20;7.63;;;5.40;;
50647;SDS011;36617;52.002;6.034;2022-12-13T08:36:45;8.67;;;6.03;;
50647;SDS011;36617;52.002;6.034;2022-12-13T08:39:10;9.27;;;5.87;;
50647;SDS011;36617;52.002;6.034;2022-12-13T08:41:36;14.47;;;6.17;;
50647;SDS011;36617;52.002;6.034;2022-12-13T08:44:01;9.80;;;6.17;;
50647;SDS011;36617;52.002;6.034;2022-12-13T08:46:26;13.80;;;8.83;;
50647;SDS011;36617;52.002;6.034;2022-12-13T08:48:52;17.42;;;7.50;;
50647;SDS011;36617;52.002;6.034;2022-12-13T08:51:17;11.45;;;7.13;;
50647;SDS011;36617;52.002;6.034;2022-12-13T08:53:47;10.27;;;7.10;;
50647;SDS011;36617;52.002;6.034;2022-12-13T08:56:12;9.73;;;6.87;;
50647;SDS011;36617;52.002;6.034;2022-12-13T08:58:38;9.68;;;6.60;;
50647;SDS011;36617;52.002;6.034;2022-12-13T09:01:06;9.83;;;6.83;;
50647;SDS011;36617;52.002;6.034;2022-12-13T09:03:32;10.30;;;6.85;;
50647;SDS011;36617;52.002;6.034;2022-12-13T09:06:04;9.05;;;6.70;;
50647;SDS011;36617;52.002;6.034;2022-12-13T09:08:29;9.65;;;6.43;;
50647;SDS011;36617;52.002;6.034;2022-12-13T09:10:55;9.63;;;6.60;;
50647;SDS011;36617;52.002;6.034;2022-12-13T09:13:20;8.90;;;6.25;;
50647;SDS011;36617;52.002;6.034;2022-12-13T09:15:45;8.57;;;6.53;;
50647;SDS011;36617;52.002;6.034;2022-12-13T09:18:11;9.97;;;6.53;;
50647;SDS011;36617;52.002;6.034;2022-12-13T09:20:36;9.13;;;6.50;;
50647;SDS011;36617;52.002;6.034;2022-12-13T09:23:01;9.17;;;6.77;;
50647;SDS011;36617;52.002;6.034;2022-12-13T09:25:27;9.30;;;6.80;;
50647;SDS011;36617;52.002;6.034;2022-12-13T09:27:52;10.23;;;6.93;;
50647;SDS011;36617;52.002;6.034;2022-12-13T09:30:17;10.05;;;6.75;;
50647;SDS011;36617;52.002;6.034;2022-12-13T09:32:43;8.67;;;6.30;;
50647;SDS011;36617;52.002;6.034;2022-12-13T09:35:13;9.23;;;6.57;;
50647;SDS011;36617;52.002;6.034;2022-12-13T09:37:38;8.70;;;6.63;;
50647;SDS011;36617;52.002;6.034;2022-12-13T09:40:04;8.60;;;6.50;;
50647;SDS011;36617;52.002;6.034;2022-12-13T09:42:29;9.20;;;6.35;;
50647;SDS011;36617;52.002;6.034;2022-12-13T09:45:00;8.90;;;6.78;;
50647;SDS011;36617;52.002;6.034;2022-12-13T09:49:52;9.83;;;6.73;;
50647;SDS011;36617;52.002;6.034;2022-12-13T09:52:17;11.53;;;6.63;;
50647;SDS011;36617;52.002;6.034;2022-12-13T09:54:43;9.17;;;6.60;;
50647;SDS011;36617;52.002;6.034;2022-12-13T09:57:13;8.90;;;6.60;;
50647;SDS011;36617;52.002;6.034;2022-12-13T09:59:39;9.57;;;6.78;;
50647;SDS011;36617;52.002;6.034;2022-12-13T10:02:13;9.03;;;6.93;;
50647;SDS011;36617;52.002;6.034;2022-12-13T10:04:39;9.20;;;6.43;;
50647;SDS011;36617;52.002;6.034;2022-12-13T10:07:09;9.53;;;6.80;;
50647;SDS011;36617;52.002;6.034;2022-12-13T10:09:36;9.23;;;6.63;;
50647;SDS011;36617;52.002;6.034;2022-12-13T10:12:01;8.40;;;6.40;;
50647;SDS011;36617;52.002;6.034;2022-12-13T10:14:28;9.00;;;6.60;;
50647;SDS011;36617;52.002;6.034;2022-12-13T10:16:57;9.40;;;6.80;;
50647;SDS011;36617;52.002;6.034;2022-12-13T10:19:34;9.23;;;6.60;;
50647;SDS011;36617;52.002;6.034;2022-12-13T10:22:00;9.15;;;6.65;;
50647;SDS011;36617;52.002;6.034;2022-12-13T10:24:27;9.02;;;6.50;;
50647;SDS011;36617;52.002;6.034;2022-12-13T10:26:58;9.25;;;6.55;;
50647;SDS011;36617;52.002;6.034;2022-12-13T10:29:24;8.95;;;6.60;;
50647;SDS011;36617;52.002;6.034;2022-12-13T10:31:50;8.80;;;6.63;;
50647;SDS011;36617;52.002;6.034;2022-12-13T10:36:41;9.43;;;7.07;;
50647;SDS011;36617;52.002;6.034;2022-12-13T10:39:09;8.45;;;6.82;;
50647;SDS011;36617;52.002;6.034;2022-12-13T10:41:38;9.57;;;7.10;;
50647;SDS011;36617;52.002;6.034;2022-12-13T10:46:45;9.25;;;6.88;;
50647;SDS011;36617;52.002;6.034;2022-12-13T10:49:14;9.87;;;6.77;;
50647;SDS011;36617;52.002;6.034;2022-12-13T10:51:40;8.55;;;6.63;;
50647;SDS011;36617;52.002;6.034;2022-12-13T10:54:10;9.20;;;6.85;;
50647;SDS011;36617;52.002;6.034;2022-12-13T10:56:44;8.70;;;6.40;;
50647;SDS011;36617;52.002;6.034;2022-12-13T10:59:10;9.25;;;6.60;;
50647;SDS011;36617;52.002;6.034;2022-12-13T11:01:36;10.43;;;6.90;;
50647;SDS011;36617;52.002;6.034;2022-12-13T11:04:05;8.63;;;6.53;;
50647;SDS011;36617;52.002;6.034;2022-12-13T11:06:44;8.60;;;6.45;;
50647;SDS011;36617;52.002;6.034;2022-12-13T11:09:13;8.65;;;6.45;;
50647;SDS011;36617;52.002;6.034;2022-12-13T11:11:39;8.80;;;6.60;;
50647;SDS011;36617;52.002;6.034;2022-12-13T11:14:04;9.50;;;6.50;;
50647;SDS011;36617;52.002;6.034;2022-12-13T11:16:33;9.63;;;7.10;;
50647;SDS011;36617;52.002;6.034;2022-12-13T11:18:59;9.17;;;6.70;;
50647;SDS011;36617;52.002;6.034;2022-12-13T11:21:29;9.70;;;6.70;;
50647;SDS011;36617;52.002;6.034;2022-12-13T11:23:58;9.25;;;6.53;;
50647;SDS011;36617;52.002;6.034;2022-12-13T11:26:25;9.25;;;6.68;;
50647;SDS011;36617;52.002;6.034;2022-12-13T11:31:36;8.68;;;6.35;;
50647;SDS011;36617;52.002;6.034;2022-12-13T11:39:20;8.73;;;6.40;;
50647;SDS011;36617;52.002;6.034;2022-12-13T11:47:20;8.48;;;6.18;;
50647;SDS011;36617;52.002;6.034;2022-12-13T11:49:48;8.57;;;6.20;;
50647;SDS011;36617;52.002;6.034;2022-12-13T11:52:16;8.03;;;6.13;;
50647;SDS011;36617;52.002;6.034;2022-12-13T11:57:12;8.35;;;6.03;;
50647;SDS011;36617;52.002;6.034;2022-12-13T11:59:47;8.60;;;5.97;;
50647;SDS011;36617;52.002;6.034;2022-12-13T12:02:18;15.95;;;6.68;;
50647;SDS011;36617;52.002;6.034;2022-12-13T12:04:49;13.80;;;6.53;;
50647;SDS011;36617;52.002;6.034;2022-12-13T12:07:16;12.77;;;6.70;;
50647;SDS011;36617;52.002;6.034;2022-12-13T12:09:50;11.43;;;6.20;;
50647;SDS011;36617;52.002;6.034;2022-12-13T12:12:25;9.35;;;5.63;;
50647;SDS011;36617;52.002;6.034;2022-12-13T12:14:55;11.18;;;6.10;;
50647;SDS011;36617;52.002;6.034;2022-12-13T12:17:23;9.07;;;6.07;;
50647;SDS011;36617;52.002;6.034;2022-12-13T12:19:50;9.20;;;6.10;;
50647;SDS011;36617;52.002;6.034;2022-12-13T12:22:37;9.15;;;5.97;;
50647;SDS011;36617;52.002;6.034;2022-12-13T12:27:44;10.30;;;6.00;;
50647;SDS011;36617;52.002;6.034;2022-12-13T12:30:24;8.98;;;6.03;;
50647;SDS011;36617;52.002;6.034;2022-12-13T12:37:52;9.68;;;6.13;;
50647;SDS011;36617;52.002;6.034;2022-12-13T12:40:32;8.33;;;5.77;;
50647;SDS011;36617;52.002;6.034;2022-12-13T12:43:09;8.70;;;5.75;;
50647;SDS011;36617;52.002;6.034;2022-12-13T12:53:42;9.55;;;5.88;;
50647;SDS011;36617;52.002;6.034;2022-12-13T12:56:18;8.82;;;5.68;;
50647;SDS011;36617;52.002;6.034;2022-12-13T12:58:53;9.47;;;5.93;;
50647;SDS011;36617;52.002;6.034;2022-12-13T13:03:45;8.65;;;5.57;;
50647;SDS011;36617;52.002;6.034;2022-12-13T13:08:47;8.05;;;5.47;;
50647;SDS011;36617;52.002;6.034;2022-12-13T13:11:13;8.85;;;6.03;;
50647;SDS011;36617;52.002;6.034;2022-12-13T13:18:50;10.57;;;5.80;;
50647;SDS011;36617;52.002;6.034;2022-12-13T13:23:47;9.20;;;6.00;;
50647;SDS011;36617;52.002;6.034;2022-12-13T13:26:12;9.32;;;6.05;;
50647;SDS011;36617;52.002;6.034;2022-12-13T13:28:51;8.40;;;5.70;;
50647;SDS011;36617;52.002;6.034;2022-12-13T13:31:16;8.27;;;5.60;;
50647;SDS011;36617;52.002;6.034;2022-12-13T13:33:48;8.53;;;5.80;;
50647;SDS011;36617;52.002;6.034;2022-12-13T13:36:43;8.00;;;5.40;;
50647;SDS011;36617;52.002;6.034;2022-12-13T13:39:14;8.38;;;5.60;;
50647;SDS011;36617;52.002;6.034;2022-12-13T13:41:40;8.77;;;5.80;;
50647;SDS011;36617;52.002;6.034;2022-12-13T13:49:33;8.70;;;6.07;;
50647;SDS011;36617;52.002;6.034;2022-12-13T13:52:03;7.97;;;5.80;;
50647;SDS011;36617;52.002;6.034;2022-12-13T13:54:44;7.97;;;5.40;;
50647;SDS011;36617;52.002;6.034;2022-12-13T13:57:24;7.32;;;5.30;;
50647;SDS011;36617;52.002;6.034;2022-12-13T14:00:08;7.82;;;5.65;;
50647;SDS011;36617;52.002;6.034;2022-12-13T14:08:07;8.38;;;5.63;;
50647;SDS011;36617;52.002;6.034;2022-12-13T14:11:02;7.90;;;5.72;;
50647;SDS011;36617;52.002;6.034;2022-12-13T14:27:07;8.45;;;5.40;;
50647;SDS011;36617;52.002;6.034;2022-12-13T14:29:36;8.98;;;5.63;;
50647;SDS011;36617;52.002;6.034;2022-12-13T14:32:07;7.60;;;5.60;;
50647;SDS011;36617;52.002;6.034;2022-12-13T14:34:34;7.82;;;5.40;;
50647;SDS011;36617;52.002;6.034;2022-12-13T14:37:01;8.23;;;5.87;;
50647;SDS011;36617;52.002;6.034;2022-12-13T14:39:27;8.23;;;5.88;;
50647;SDS011;36617;52.002;6.034;2022-12-13T14:41:56;7.93;;;5.57;;
50647;SDS011;36617;52.002;6.034;2022-12-13T14:44:30;7.75;;;5.32;;
50647;SDS011;36617;52.002;6.034;2022-12-13T14:49:21;7.97;;;5.40;;
50647;SDS011;36617;52.002;6.034;2022-12-13T14:51:48;8.73;;;5.90;;
50647;SDS011;36617;52.002;6.034;2022-12-13T14:54:18;8.27;;;5.68;;
50647;SDS011;36617;52.002;6.034;2022-12-13T14:57:03;8.70;;;5.68;;
50647;SDS011;36617;52.002;6.034;2022-12-13T14:59:29;8.27;;;5.50;;
50647;SDS011;36617;52.002;6.034;2022-12-13T15:02:00;8.05;;;5.53;;
50647;SDS011;36617;52.002;6.034;2022-12-13T15:04:30;8.95;;;5.55;;
50647;SDS011;36617;52.002;6.034;2022-12-13T15:09:24;8.75;;;6.10;;
50647;SDS011;36617;52.002;6.034;2022-12-13T15:11:51;8.32;;;5.88;;
50647;SDS011;36617;52.002;6.034;2022-12-13T15:14:17;8.40;;;5.70;;
50647;SDS011;36617;52.002;6.034;2022-12-13T15:16:46;7.57;;;5.60;;
50647;SDS011;36617;52.002;6.034;2022-12-13T15:19:16;8.10;;;5.90;;
50647;SDS011;36617;52.002;6.034;2022-12-13T15:24:29;8.32;;;5.88;;
50647;SDS011;36617;52.002;6.034;2022-12-13T15:26:56;9.63;;;5.90;;
50647;SDS011;36617;52.002;6.034;2022-12-13T15:29:23;9.48;;;6.10;;
50647;SDS011;36617;52.002;6.034;2022-12-13T15:31:49;9.00;;;5.90;;
50647;SDS011;36617;52.002;6.034;2022-12-13T15:34:19;7.67;;;5.50;;
50647;SDS011;36617;52.002;6.034;2022-12-13T15:36:44;8.07;;;5.80;;
50647;SDS011;36617;52.002;6.034;2022-12-13T15:39:10;8.37;;;5.90;;
50647;SDS011;36617;52.002;6.034;2022-12-13T15:41:40;8.40;;;5.73;;
50647;SDS011;36617;52.002;6.034;2022-12-13T15:44:07;8.63;;;5.93;;
50647;SDS011;36617;52.002;6.034;2022-12-13T15:46:42;8.60;;;5.90;;
50647;SDS011;36617;52.002;6.034;2022-12-13T15:51:57;8.85;;;6.32;;
50647;SDS011;36617;52.002;6.034;2022-12-13T15:54:23;8.32;;;6.10;;
50647;SDS011;36617;52.002;6.034;2022-12-13T15:59:33;8.68;;;6.30;;
50647;SDS011;36617;52.002;6.034;2022-12-13T16:01:59;9.20;;;6.30;;
50647;SDS011;36617;52.002;6.034;2022-12-13T16:04:25;8.87;;;6.27;;
50647;SDS011;36617;52.002;6.034;2022-12-13T16:06:52;9.10;;;5.90;;
50647;SDS011;36617;52.002;6.034;2022-12-13T16:09:18;8.43;;;6.00;;
50647;SDS011;36617;52.002;6.034;2022-12-13T16:11:51;8.23;;;6.22;;
50647;SDS011;36617;52.002;6.034;2022-12-13T16:16:52;8.77;;;6.22;;
50647;SDS011;36617;52.002;6.034;2022-12-13T16:19:17;8.90;;;6.13;;
50647;SDS011;36617;52.002;6.034;2022-12-13T16:21:43;8.93;;;6.53;;
50647;SDS011;36617;52.002;6.034;2022-12-13T16:24:09;9.10;;;6.67;;
50647;SDS011;36617;52.002;6.034;2022-12-13T16:26:34;8.57;;;6.23;;
50647;SDS011;36617;52.002;6.034;2022-12-13T16:28:59;9.90;;;6.43;;
50647;SDS011;36617;52.002;6.034;2022-12-13T16:31:28;9.30;;;6.50;;
50647;SDS011;36617;52.002;6.034;2022-12-13T16:33:59;9.35;;;6.78;;
50647;SDS011;36617;52.002;6.034;2022-12-13T16:36:24;8.93;;;6.77;;
50647;SDS011;36617;52.002;6.034;2022-12-13T16:38:49;8.93;;;6.90;;
50647;SDS011;36617;52.002;6.034;2022-12-13T16:41:15;9.30;;;6.93;;
50647;SDS011;36617;52.002;6.034;2022-12-13T16:43:57;9.40;;;6.77;;